This is the latest recevied weather packets stored in our database for station/object DK0KTL-4. If no packets are shown the sender has not sent any weather packets the latest 10 day(s).
| Time | Temp. | Humidity | Pressure | Rain* | Wind** | Luminosity | Snow |
|---|---|---|---|---|---|---|---|
| 1777279775 | 15° C | 44% | 1023.9 hPa | 0 mm | - | - | - |
| 1777279174 | 14.44° C | 47% | 1023.9 hPa | 0 mm | - | - | - |
| 1777278273 | 13.33° C | 52% | 1024 hPa | 0 mm | - | - | - |
| 1777277973 | 13.33° C | 50% | 1024.1 hPa | 0 mm | - | - | - |
| 1777277673 | 12.78° C | 54% | 1024.2 hPa | 0 mm | - | - | - |
| 1777277373 | 12.22° C | 54% | 1024.2 hPa | 0 mm | - | - | - |
| 1777277072 | 11.67° C | 54% | 1024.2 hPa | 0 mm | - | - | - |
| 1777276472 | 10.56° C | 58% | 1024.2 hPa | 0 mm | - | - | - |
| 1777275871 | 9.44° C | 59% | 1024.1 hPa | 0 mm | - | - | - |
| 1777274670 | 7.22° C | 67% | 1024 hPa | 0 mm | - | - | - |
| 1777272568 | 4.44° C | 77% | 1023.8 hPa | 0 mm | - | - | - |
| 1777271967 | 3.33° C | 80% | 1023.9 hPa | 0 mm | - | - | - |
| 1777271367 | 2.78° C | 81% | 1023.8 hPa | 0 mm | - | - | - |
| 1777271066 | 2.78° C | 82% | 1023.9 hPa | 0 mm | - | - | - |
| 1777270466 | 2.22° C | 83% | 1023.9 hPa | 0 mm | - | - | - |
| 1777270165 | 2.22° C | 83% | 1024 hPa | 0 mm | - | - | - |
| 1777269265 | 1.67° C | 85% | 1024.1 hPa | 0 mm | - | - | - |
| 1777268664 | 1.67° C | 85% | 1024.2 hPa | 0 mm | - | - | - |
| 1777268364 | 1.67° C | 86% | 1024.3 hPa | 0 mm | - | - | - |
| 1777268064 | 1.11° C | 87% | 1024.2 hPa | 0 mm | - | - | - |
| 1777267763 | 1.11° C | 87% | 1024.2 hPa | 0 mm | - | - | - |
| 1777267463 | 1.11° C | 88% | 1024.2 hPa | 0 mm | - | - | - |
| 1777267163 | 0.56° C | 88% | 1024.2 hPa | 0 mm | - | - | - |
| 1777266862 | 0.56° C | 89% | 1024.2 hPa | 0 mm | - | - | - |
| 1777266562 | 0.56° C | 89% | 1024.1 hPa | 0 mm | - | - | - |
* Rain latest hour (hover to see other rain measurements)
** Current wind speed in m/s (hover to see current wind gust speed)